Time;durP1;ratioP1;P1;durP2;ratioP2;P2;SDS_P1;SDS_P2;PMS_P1;PMS_P2;Temp;Humidity;BMP_temperature;BMP_pressure;BME280_temperature;BME280_humidity;BME280_pressure;Samples;Min_cycle;Max_cycle;Signal;HPM_P1;HPM_P2
2023/08/02 00:02:58;;;;;;;10.93;3.58;;;;;;;18.68;70.95;98895.66;7738271;32;39914;-79
2023/08/02 00:07:14;;;;;;;7.53;3.97;;;;;;;18.18;72.65;98896.84;7738313;32;39882;-79
2023/08/02 00:11:31;;;;;;;8.65;3.90;;;;;;;18.67;70.87;98899.56;7738917;32;37919;-79
2023/08/02 00:15:47;;;;;;;8.60;3.58;;;;;;;18.14;72.90;98905.03;7738144;32;37137;-79
2023/08/02 00:20:04;;;;;;;8.00;3.97;;;;;;;18.43;72.08;98916.97;7738050;32;40147;-79
2023/08/02 00:24:20;;;;;;;6.37;3.58;;;;;;;18.46;71.85;98915.47;7738117;32;39666;-80
2023/08/02 00:28:36;;;;;;;7.03;3.58;;;;;;;18.52;71.74;98903.03;7737956;32;38527;-80
2023/08/02 00:32:52;;;;;;;9.25;4.18;;;;;;;18.63;71.58;98909.72;7737968;32;36836;-80
2023/08/02 00:37:09;;;;;;;6.93;3.92;;;;;;;18.56;71.83;98910.28;7751387;32;40206;-79
2023/08/02 00:41:25;;;;;;;7.22;3.87;;;;;;;18.36;72.30;98916.75;7764375;32;40001;-79
2023/08/02 00:45:41;;;;;;;9.40;4.22;;;;;;;18.54;71.88;98922.81;7763320;32;37959;-79
2023/08/02 00:49:58;;;;;;;11.30;4.82;;;;;;;18.36;72.78;98914.78;7745204;32;37059;-79
2023/08/02 00:54:14;;;;;;;9.55;4.90;;;;;;;18.50;72.46;98921.91;7737448;32;40367;-79
2023/08/02 00:58:30;;;;;;;9.15;4.85;;;;;;;18.12;73.87;98920.28;7737432;32;39737;-80
2023/08/02 01:02:46;;;;;;;9.02;4.87;;;;;;;18.39;73.32;98919.59;7736783;32;38513;-79
2023/08/02 01:07:22;;;;;;;9.50;4.90;;;;;;;18.29;73.94;98925.59;7736084;32;37862;-80
2023/08/02 01:11:52;;;;;;;8.80;4.22;;;;;;;17.64;75.49;98928.09;7737186;32;39867;-79
2023/08/02 01:16:08;;;;;;;8.63;5.03;;;;;;;18.09;73.94;98930.06;7755590;32;40815;-80
2023/08/02 01:20:24;;;;;;;8.45;4.93;;;;;;;17.86;74.64;98926.91;7763635;32;37693;-80
2023/08/02 01:24:40;;;;;;;10.73;4.60;;;;;;;18.01;74.27;98934.53;7764043;32;37989;-80
2023/08/02 01:28:59;;;;;;;12.45;5.65;;;;;;;18.11;73.81;98930.53;7763665;32;40197;-80
2023/08/02 01:33:16;;;;;;;12.37;5.03;;;;;;;18.15;73.70;98927.88;7743870;32;39879;-79
2023/08/02 01:37:35;;;;;;;8.13;4.53;;;;;;;18.13;73.94;98935.69;7737165;32;37585;-79
2023/08/02 01:41:51;;;;;;;9.25;5.45;;;;;;;18.12;74.07;98929.34;7736286;32;37131;-80
2023/08/02 01:46:07;;;;;;;11.18;5.00;;;;;;;18.27;73.38;98919.59;7736268;32;39985;-79
2023/08/02 01:50:24;;;;;;;12.88;4.55;;;;;;;17.65;75.78;98921.44;7735056;32;41289;-79
2023/08/02 01:54:44;;;;;;;10.50;4.10;;;;;;;17.55;76.16;98932.88;7736032;32;38470;-79
2023/08/02 01:59:00;;;;;;;7.12;4.18;;;;;;;17.83;75.32;98933.91;7736126;32;37079;-79
2023/08/02 02:03:16;;;;;;;5.87;3.55;;;;;;;17.40;76.42;98935.13;7735790;32;39057;-79
2023/08/02 02:07:33;;;;;;;7.40;3.47;;;;;;;18.14;73.75;98931.78;7735742;32;39928;-79
2023/08/02 02:11:49;;;;;;;8.15;4.03;;;;;;;17.81;74.97;98946.41;7760285;32;38925;-79
2023/08/02 02:16:05;;;;;;;7.82;4.12;;;;;;;17.79;75.62;98946.72;7764640;32;36934;-79
2023/08/02 02:20:22;;;;;;;9.82;3.78;;;;;;;18.09;74.73;98937.50;7756733;32;40095;-79
2023/08/02 02:24:38;;;;;;;7.60;4.07;;;;;;;18.06;74.73;98940.94;7739401;32;39714;-79
2023/08/02 02:28:54;;;;;;;6.82;3.72;;;;;;;18.20;73.81;98946.97;7738152;32;37701;-80
2023/08/02 02:33:10;;;;;;;6.80;4.07;;;;;;;17.76;75.61;98949.37;7758654;32;36828;-79
2023/08/02 02:37:27;;;;;;;9.20;3.87;;;;;;;17.29;76.62;98944.94;7766343;32;39387;-79
2023/08/02 02:41:43;;;;;;;8.70;4.22;;;;;;;17.54;76.83;98951.38;7765948;32;39932;-79
2023/08/02 02:45:59;;;;;;;7.95;3.62;;;;;;;17.82;75.42;98953.53;7766395;32;37194;-79
2023/08/02 02:50:15;;;;;;;9.13;4.15;;;;;;;17.91;74.70;98951.50;7766091;32;38071;-79
2023/08/02 02:54:31;;;;;;;8.20;4.12;;;;;;;17.92;74.49;98963.31;7766060;32;39992;-80
2023/08/02 02:58:48;;;;;;;9.40;4.20;;;;;;;18.17;73.92;98961.44;7765945;32;40774;-80
2023/08/02 03:03:04;;;;;;;8.85;4.60;;;;;;;18.05;74.70;98972.44;7765756;32;38598;-80
2023/08/02 03:07:20;;;;;;;9.25;4.53;;;;;;;18.10;74.40;98969.47;7764702;32;37845;-80
2023/08/02 03:11:36;;;;;;;9.30;4.37;;;;;;;18.09;73.95;98978.88;7740853;32;39464;-80
2023/08/02 03:15:53;;;;;;;9.18;4.30;;;;;;;17.95;73.97;98982.75;7738868;32;40811;-80
2023/08/02 03:20:09;;;;;;;7.10;4.00;;;;;;;17.99;74.32;98974.63;7738754;32;37863;-80
2023/08/02 03:24:25;;;;;;;8.07;4.18;;;;;;;18.08;74.15;98982.81;7738780;32;37918;-80
2023/08/02 03:28:42;;;;;;;8.45;4.43;;;;;;;17.97;74.16;98993.44;7738451;32;39365;-80
2023/08/02 03:32:58;;;;;;;8.77;4.60;;;;;;;18.35;73.01;98984.91;7738701;32;39934;-79
2023/08/02 03:37:14;;;;;;;8.32;4.75;;;;;;;18.36;72.87;98991.22;7738514;32;38551;-79
2023/08/02 03:41:31;;;;;;;12.00;5.68;;;;;;;18.50;72.30;98994.44;7738387;32;37014;-79
2023/08/02 03:45:49;;;;;;;9.18;5.30;;;;;;;18.36;72.56;98997.56;7738492;32;39401;-78
2023/08/02 03:50:06;;;;;;;10.13;5.43;;;;;;;18.13;73.50;98996.38;7738572;32;38838;-80
2023/08/02 03:54:22;;;;;;;9.45;5.78;;;;;;;18.23;73.23;99001.47;7738216;32;38497;-80
2023/08/02 03:58:38;;;;;;;8.73;5.12;;;;;;;17.80;75.02;98997.19;7739137;32;37113;-80
2023/08/02 04:02:55;;;;;;;17.20;6.37;;;;;;;17.77;75.01;99001.41;7738210;32;39317;-80
2023/08/02 04:07:12;;;;;;;14.87;6.78;;;;;;;17.66;75.02;98989.19;7738448;32;40764;-80
2023/08/02 04:11:28;;;;;;;13.60;5.93;;;;;;;17.49;75.33;98998.44;7761895;32;37882;-80
2023/08/02 04:15:44;;;;;;;12.32;6.80;;;;;;;18.10;72.80;98999.81;7757188;32;37879;-78
2023/08/02 04:20:01;;;;;;;14.93;6.82;;;;;;;18.16;72.75;99002.00;7735367;32;39294;-79
2023/08/02 04:24:17;;;;;;;12.82;7.25;;;;;;;18.54;71.51;99000.91;7737252;32;40748;-80
2023/08/02 04:28:34;;;;;;;11.93;7.37;;;;;;;18.68;70.89;99010.78;7760425;32;37802;-80
2023/08/02 04:32:50;;;;;;;13.62;6.25;;;;;;;18.68;70.96;99005.25;7764200;32;37077;-80
2023/08/02 04:37:06;;;;;;;10.60;6.28;;;;;;;18.74;70.41;99012.19;7763615;32;40032;-80
2023/08/02 04:41:23;;;;;;;12.52;6.93;;;;;;;19.08;69.58;99018.41;7763545;32;40061;-79
2023/08/02 04:45:39;;;;;;;13.40;7.50;;;;;;;18.98;69.54;99016.91;7763506;32;38080;-80
2023/08/02 04:49:57;;;;;;;14.52;7.05;;;;;;;18.87;69.44;99013.81;7761436;32;38101;-80
2023/08/02 04:54:14;;;;;;;17.95;7.03;;;;;;;19.06;69.07;99027.03;7736902;32;39131;-80
2023/08/02 04:58:30;;;;;;;13.70;6.95;;;;;;;19.13;68.51;99023.69;7736796;32;40067;-80
2023/08/02 05:02:46;;;;;;;15.20;6.47;;;;;;;19.05;69.31;99028.19;7736646;32;37667;-80
2023/08/02 05:07:02;;;;;;;10.73;6.28;;;;;;;19.36;68.18;99018.47;7736761;32;36964;-80
2023/08/02 05:11:19;;;;;;;11.30;6.43;;;;;;;19.50;66.88;99021.62;7735358;32;39261;-80
2023/08/02 05:15:38;;;;;;;13.25;7.05;;;;;;;19.45;67.72;99015.56;7737045;32;40761;-79
2023/08/02 05:19:54;;;;;;;11.05;6.53;;;;;;;19.60;67.33;99022.31;7736836;32;37681;-79
2023/08/02 05:24:10;;;;;;;10.27;5.93;;;;;;;19.29;68.59;99023.78;7736770;32;37047;-80
2023/08/02 05:28:27;;;;;;;11.75;5.62;;;;;;;19.36;67.37;99015.69;7736648;32;39485;-80
2023/08/02 05:32:43;;;;;;;9.30;5.57;;;;;;;19.25;66.80;99033.94;7736606;32;40175;-81
2023/08/02 05:36:59;;;;;;;10.68;6.20;;;;;;;19.04;67.31;99028.53;7744494;32;37253;-80
2023/08/02 05:41:15;;;;;;;9.07;5.78;;;;;;;18.90;67.84;99023.34;7744905;32;38200;-77
2023/08/02 05:45:32;;;;;;;10.55;6.12;;;;;;;18.70;68.57;99031.41;7739032;32;40061;-77
2023/08/02 05:49:48;;;;;;;10.13;6.10;;;;;;;19.28;67.09;99022.97;7755564;32;40851;-80
2023/08/02 05:54:04;;;;;;;10.85;6.07;;;;;;;19.11;67.92;99035.09;7739739;32;37808;-83
2023/08/02 05:58:20;;;;;;;10.00;6.22;;;;;;;19.14;67.28;99039.94;7738487;32;37666;-79
2023/08/02 06:02:38;;;;;;;8.98;5.20;;;;;;;19.00;67.72;99036.69;7739662;32;39409;-71
2023/08/02 06:06:54;;;;;;;9.98;5.85;;;;;;;18.93;68.97;99048.31;7739674;32;39687;-73
2023/08/02 06:11:11;;;;;;;11.38;5.68;;;;;;;19.15;67.55;99060.06;7739457;32;37975;-74
2023/08/02 06:15:28;;;;;;;8.70;4.97;;;;;;;19.25;67.46;99067.88;7739613;32;37127;-75
2023/08/02 06:19:45;;;;;;;8.52;5.78;;;;;;;19.21;66.18;99063.37;7740308;32;41471;-80
2023/08/02 06:24:01;;;;;;;10.75;5.90;;;;;;;19.58;65.04;99066.09;7739343;32;41606;-80
2023/08/02 06:28:18;;;;;;;9.70;6.20;;;;;;;19.49;66.15;99080.06;7739353;32;37864;-80
2023/08/02 06:32:34;;;;;;;11.23;6.37;;;;;;;19.51;65.43;99074.97;7739716;32;37200;-80
2023/08/02 06:36:50;;;;;;;8.82;5.30;;;;;;;19.73;65.27;99070.06;7739312;32;40028;-80
2023/08/02 06:41:06;;;;;;;8.90;5.15;;;;;;;19.17;65.15;99070.78;7741230;32;40345;-79
2023/08/02 06:45:22;;;;;;;7.65;5.25;;;;;;;19.68;64.04;99084.97;7741853;32;37933;-79
2023/08/02 06:49:39;;;;;;;7.78;5.53;;;;;;;19.75;63.99;99079.66;7740115;32;37028;-79
2023/08/02 06:53:57;;;;;;;8.95;5.10;;;;;;;20.25;63.35;99085.81;7746462;32;39405;-80
2023/08/02 06:58:14;;;;;;;8.60;5.18;;;;;;;20.05;62.84;99090.38;7764829;32;40857;-79
2023/08/02 07:02:30;;;;;;;9.82;5.57;;;;;;;20.18;61.96;99082.81;7758107;32;37669;-79
2023/08/02 07:06:46;;;;;;;8.65;4.93;;;;;;;20.57;61.67;99081.09;7759053;32;37134;-79
2023/08/02 07:11:04;;;;;;;7.65;4.70;;;;;;;20.56;60.66;99073.97;7765277;32;39402;-80
2023/08/02 07:15:20;;;;;;;9.30;4.37;;;;;;;20.30;61.82;99066.19;7763880;32;40747;-80
2023/08/02 07:19:36;;;;;;;7.68;4.35;;;;;;;20.73;62.03;99069.25;7764497;32;37684;-81
2023/08/02 07:23:52;;;;;;;7.65;4.43;;;;;;;20.94;61.14;99072.56;7764626;32;37610;-80
2023/08/02 07:28:09;;;;;;;7.80;4.93;;;;;;;20.77;61.13;99090.34;7752378;32;39452;-80
2023/08/02 07:32:25;;;;;;;10.05;5.35;;;;;;;20.79;59.82;99087.22;7737614;32;39962;-80
2023/08/02 07:36:41;;;;;;;7.28;4.60;;;;;;;20.87;59.91;99091.78;7737657;32;37893;-81
2023/08/02 07:41:02;;;;;;;8.77;4.35;;;;;;;20.93;58.93;99093.09;7737979;32;37574;-81
2023/08/02 07:45:18;;;;;;;7.30;4.18;;;;;;;20.71;60.71;99090.97;7737625;32;39639;-81
2023/08/02 07:49:34;;;;;;;8.43;3.65;;;;;;;20.94;59.31;99085.63;7738054;32;40717;-80
2023/08/02 07:53:50;;;;;;;8.00;4.35;;;;;;;20.88;57.61;99096.16;7740316;32;38550;-79
2023/08/02 07:58:06;;;;;;;5.60;3.45;;;;;;;21.24;57.79;99096.22;7754913;32;146731;-78
2023/08/02 08:02:25;;;;;;;6.45;3.10;;;;;;;20.82;58.11;99090.09;7761684;32;40086;-79
2023/08/02 08:06:47;;;;;;;5.20;3.28;;;;;;;21.59;57.94;99081.56;7764031;32;38981;-80
2023/08/02 08:11:03;;;;;;;6.20;3.00;;;;;;;21.28;57.04;99078.47;7743768;32;38643;-80
2023/08/02 08:15:20;;;;;;;6.60;3.30;;;;;;;21.25;56.61;99089.50;7742034;32;37863;-74
2023/08/02 08:19:37;;;;;;;6.32;2.72;;;;;;;21.65;56.22;99089.25;7760794;32;39419;-79
2023/08/02 08:23:53;;;;;;;4.82;2.80;;;;;;;22.04;54.23;99094.00;7737070;32;40792;-80
2023/08/02 08:28:09;;;;;;;5.53;2.60;;;;;;;22.01;55.49;99090.00;7735991;32;38778;-81
2023/08/02 08:32:27;;;;;;;4.47;2.55;;;;;;;22.42;54.08;99082.09;7753194;32;38040;-81
2023/08/02 08:36:43;;;;;;;3.53;2.37;;;;;;;22.87;53.70;99085.25;7764683;32;40219;-81
2023/08/02 08:41:00;;;;;;;4.45;2.45;;;;;;;22.46;53.56;99098.81;7764325;32;39881;-81
2023/08/02 08:45:21;;;;;;;3.05;2.15;;;;;;;22.61;53.30;99099.84;7754629;32;37815;-73
2023/08/02 08:49:38;;;;;;;3.70;2.03;;;;;;;22.43;50.85;99088.44;7736442;32;37023;-79
2023/08/02 08:53:56;;;;;;;2.47;1.80;;;;;;;22.28;51.39;99090.97;7748221;32;39451;-79
2023/08/02 08:58:12;;;;;;;3.83;2.22;;;;;;;22.77;49.77;99085.87;7763400;32;39151;-80
2023/08/02 09:02:31;;;;;;;9.18;2.03;;;;;;;22.88;49.23;99087.63;7737121;32;38676;-80
2023/08/02 09:06:47;;;;;;;3.20;1.70;;;;;;;22.86;49.48;99087.19;7737403;32;37913;-80
2023/08/02 09:11:03;;;;;;;4.50;2.30;;;;;;;23.44;48.41;99083.38;7735905;32;40139;-81
2023/08/02 09:15:20;;;;;;;3.12;2.03;;;;;;;23.68;50.07;99074.91;7733436;32;40469;-81
2023/08/02 09:19:36;;;;;;;3.50;2.05;;;;;;;23.71;49.41;99082.53;7733462;32;37583;-81
2023/08/02 09:24:02;;;;;;;5.05;2.10;;;;;;;23.79;49.59;99073.88;7735256;32;36746;-81
2023/08/02 09:28:18;;;;;;;3.55;2.03;;;;;;;24.26;48.76;99071.66;7739941;32;40180;-81
2023/08/02 09:32:34;;;;;;;6.45;2.15;;;;;;;23.92;47.18;99074.47;7740112;32;39899;-81
2023/08/02 09:36:50;;;;;;;2.70;1.60;;;;;;;24.37;48.18;99060.66;7739993;32;37858;-81
2023/08/02 09:41:20;;;;;;;7.62;2.20;;;;;;;24.79;46.57;99056.69;7739799;32;37052;-81
2023/08/02 09:45:56;;;;;;;4.90;1.85;;;;;;;25.13;46.53;99053.75;7739619;32;40155;-81
2023/08/02 09:50:16;;;;;;;4.25;1.70;;;;;;;25.36;44.69;99064.69;7739934;32;39620;-81
2023/08/02 09:54:32;;;;;;;6.32;1.77;;;;;;;24.91;45.56;99064.72;7739732;32;37764;-81
2023/08/02 09:58:50;;;;;;;4.53;1.60;;;;;;;24.68;48.18;99076.09;7739833;32;36962;-81
2023/08/02 10:03:08;;;;;;;3.95;1.73;;;;;;;24.73;45.62;99075.75;7739561;32;38225;-81
2023/08/02 10:07:52;;;;;;;3.40;1.90;;;;;;;25.26;43.95;99079.34;7739543;32;40041;-81
2023/08/02 10:12:11;;;;;;;3.15;1.80;;;;;;;24.97;44.37;99072.75;7739360;32;37822;-81
2023/08/02 10:16:28;;;;;;;6.07;1.80;;;;;;;24.89;45.75;99060.75;7739458;32;37449;-81
2023/08/02 10:20:46;;;;;;;2.15;1.77;;;;;;;25.02;46.08;99069.59;7739494;32;39959;-81
2023/08/02 10:25:02;;;;;;;3.25;1.50;;;;;;;25.55;42.67;99063.59;7739554;32;40734;-81
2023/08/02 10:29:19;;;;;;;2.97;1.90;;;;;;;25.33;43.75;99073.03;7738502;32;36945;-81
2023/08/02 10:33:35;;;;;;;4.32;1.92;;;;;;;24.90;42.26;99054.75;7739419;32;37717;-81
2023/08/02 10:37:55;;;;;;;4.28;1.62;;;;;;;25.17;43.42;99059.34;7738499;32;40178;-81
2023/08/02 10:42:12;;;;;;;4.45;1.70;;;;;;;25.03;42.24;99049.69;7738868;32;40006;-81
2023/08/02 10:46:32;;;;;;;2.47;1.75;;;;;;;25.17;42.54;99042.63;7739328;32;37666;-82
2023/08/02 10:50:48;;;;;;;4.40;1.90;;;;;;;25.45;41.60;99039.22;7739351;32;37044;-81
2023/08/02 10:55:20;;;;;;;2.37;1.75;;;;;;;25.54;41.21;99044.44;7739031;32;40152;-81
2023/08/02 10:59:36;;;;;;;2.35;1.42;;;;;;;26.40;40.53;99027.97;7738856;32;40686;-81
2023/08/02 11:03:53;;;;;;;1.77;1.48;;;;;;;25.56;38.87;99019.72;7738840;32;38738;-81
2023/08/02 11:08:10;;;;;;;3.22;1.60;;;;;;;26.43;39.01;99021.59;7738928;32;37086;-81
2023/08/02 11:12:28;;;;;;;3.80;1.50;;;;;;;26.81;38.96;99016.44;7738941;32;39830;-80
2023/08/02 11:16:45;;;;;;;1.75;1.40;;;;;;;26.35;37.92;99003.22;7738980;32;40715;-81
2023/08/02 11:21:12;;;;;;;5.25;1.48;;;;;;;26.61;37.99;99000.06;7738691;32;38249;-81
2023/08/02 11:25:28;;;;;;;2.35;1.40;;;;;;;26.85;37.64;98986.47;7738642;32;36965;-81
2023/08/02 11:30:01;;;;;;;4.78;1.30;;;;;;;26.73;36.35;98987.72;7738807;32;38646;-81
2023/08/02 11:34:18;;;;;;;2.42;1.50;;;;;;;26.35;36.85;98980.88;7738514;32;39909;-81
2023/08/02 11:38:37;;;;;;;2.33;1.37;;;;;;;26.93;35.88;98976.88;7738505;32;38623;-81
2023/08/02 11:42:53;;;;;;;2.12;1.10;;;;;;;27.16;34.82;98967.22;7737887;32;37267;-82
2023/08/02 11:47:11;;;;;;;2.25;1.37;;;;;;;26.89;33.80;98967.72;7738397;32;39515;-81
2023/08/02 11:51:28;;;;;;;1.20;1.10;;;;;;;27.63;34.30;98959.50;7738299;32;39963;-81
2023/08/02 11:55:44;;;;;;;4.07;1.20;;;;;;;28.16;33.38;98951.19;7738762;32;36071;-81
2023/08/02 12:00:01;;;;;;;1.50;1.02;;;;;;;28.19;31.16;98947.56;7738349;32;36896;-81
2023/08/02 12:04:17;;;;;;;1.75;1.10;;;;;;;28.48;30.64;98948.94;7737010;32;39240;-81
2023/08/02 12:08:33;;;;;;;3.95;1.23;;;;;;;28.56;30.85;98944.09;7738216;32;40877;-81
2023/08/02 12:12:50;;;;;;;1.90;1.20;;;;;;;28.21;31.13;98945.16;7738070;32;37901;-81
2023/08/02 12:17:14;;;;;;;2.10;1.00;;;;;;;28.03;29.81;98951.69;7738181;32;36836;-81
2023/08/02 12:21:30;;;;;;;1.92;1.20;;;;;;;27.27;30.72;98950.41;7738198;32;39949;-81
2023/08/02 12:25:48;;;;;;;2.30;1.10;;;;;;;28.00;31.11;98951.72;7737868;32;39859;-81
2023/08/02 12:30:15;;;;;;;3.00;1.30;;;;;;;28.16;28.28;98937.19;7737949;32;37920;-81
2023/08/02 12:34:31;;;;;;;2.62;1.37;;;;;;;27.43;31.40;98938.81;7737945;32;37765;-82
2023/08/02 12:38:48;;;;;;;1.98;1.17;;;;;;;27.28;32.27;98946.44;7737767;32;39298;-81
2023/08/02 12:43:04;;;;;;;1.98;1.27;;;;;;;27.48;30.70;98938.38;7737524;32;39952;-81
2023/08/02 12:47:20;;;;;;;2.10;1.10;;;;;;;28.02;30.63;98938.09;7737579;32;37989;-81
2023/08/02 12:51:39;;;;;;;6.35;1.40;;;;;;;28.18;30.48;98946.78;7737656;32;37854;-81
2023/08/02 12:55:55;;;;;;;2.35;1.42;;;;;;;28.07;29.34;98935.63;7737622;32;39334;-81
2023/08/02 13:00:12;;;;;;;1.92;1.25;;;;;;;27.78;33.88;98937.00;7736751;32;40804;-81
2023/08/02 13:04:28;;;;;;;4.60;1.40;;;;;;;28.25;31.91;98931.91;7737218;32;37677;-81
2023/08/02 13:08:44;;;;;;;1.62;1.10;;;;;;;28.46;30.48;98928.16;7737392;32;36721;-81
2023/08/02 13:13:01;;;;;;;3.78;1.35;;;;;;;28.67;30.34;98927.16;7737156;32;40117;-81
2023/08/02 13:17:19;;;;;;;3.45;1.02;;;;;;;28.83;30.90;98930.19;7737070;32;39959;-81
2023/08/02 13:21:35;;;;;;;4.15;1.62;;;;;;;29.55;30.84;98909.72;7736936;32;37759;-81
2023/08/02 13:25:52;;;;;;;2.00;1.00;;;;;;;28.86;32.02;98905.34;7736736;32;36979;-81
2023/08/02 13:30:08;;;;;;;1.75;1.17;;;;;;;29.11;31.07;98911.44;7736617;32;40463;-81
2023/08/02 13:34:25;;;;;;;2.60;1.12;;;;;;;28.53;31.57;98922.47;7736183;32;40809;-81
2023/08/02 13:38:41;;;;;;;4.40;1.45;;;;;;;29.07;29.69;98909.91;7736424;32;37835;-83
2023/08/02 13:42:58;;;;;;;1.92;0.90;;;;;;;28.68;29.63;98916.75;7736331;32;37211;-84
2023/08/02 13:47:14;;;;;;;2.10;1.23;;;;;;;28.78;30.25;98899.81;7736451;32;40149;-84
2023/08/02 13:51:33;;;;;;;2.33;1.17;;;;;;;28.48;29.36;98909.69;7736239;32;40844;-84
2023/08/02 13:55:50;;;;;;;2.95;0.85;;;;;;;28.33;29.63;98902.63;7736058;32;37897;-83
2023/08/02 14:00:07;;;;;;;1.50;1.08;;;;;;;28.40;29.63;98896.16;7736001;32;37070;-81
2023/08/02 14:04:23;;;;;;;1.52;1.00;;;;;;;28.33;29.49;98893.41;7735725;32;39425;-81
2023/08/02 14:08:39;;;;;;;2.75;1.17;;;;;;;28.23;29.15;98886.69;7735647;32;40305;-81
2023/08/02 14:12:58;;;;;;;2.80;1.10;;;;;;;28.32;29.91;98872.19;7747580;32;37883;-82
2023/08/02 14:17:14;;;;;;;3.40;1.15;;;;;;;28.37;29.27;98863.34;7766315;32;37906;-80
2023/08/02 14:21:31;;;;;;;2.62;1.12;;;;;;;28.72;29.70;98862.22;7766653;32;39416;-81
2023/08/02 14:25:47;;;;;;;1.95;1.02;;;;;;;28.44;29.81;98858.47;7766293;32;40062;-81
2023/08/02 14:30:04;;;;;;;4.97;1.30;;;;;;;28.27;30.44;98849.03;7766319;32;38018;-82
2023/08/02 14:34:23;;;;;;;4.03;1.30;;;;;;;28.42;31.65;98846.91;7765161;32;37184;-82
2023/08/02 14:38:40;;;;;;;2.03;1.00;;;;;;;28.96;31.01;98831.47;7766418;32;39362;-82
2023/08/02 14:42:56;;;;;;;3.15;1.20;;;;;;;29.34;29.40;98823.00;7765995;32;39936;-82
2023/08/02 14:47:12;;;;;;;3.35;1.62;;;;;;;29.95;30.73;98810.84;7766093;32;37980;-82
2023/08/02 14:51:28;;;;;;;2.78;1.05;;;;;;;28.90;31.02;98827.56;7765011;32;36824;-82
2023/08/02 14:55:44;;;;;;;1.70;1.12;;;;;;;29.25;30.30;98839.56;7765607;32;39161;-77
2023/08/02 15:00:01;;;;;;;2.12;1.30;;;;;;;28.69;31.28;98846.22;7765968;32;40721;-81
2023/08/02 15:04:17;;;;;;;2.28;1.40;;;;;;;28.22;32.69;98837.47;7765915;32;38001;-81
2023/08/02 15:08:33;;;;;;;3.17;1.10;;;;;;;29.47;30.73;98823.22;7765812;32;37835;-83
2023/08/02 15:12:49;;;;;;;2.40;1.25;;;;;;;29.86;29.92;98824.66;7765781;32;40051;-84
2023/08/02 15:17:06;;;;;;;2.92;1.00;;;;;;;30.62;29.17;98813.66;7765745;32;40048;-84
2023/08/02 15:21:22;;;;;;;1.52;1.08;;;;;;;30.71;29.69;98808.25;7765318;32;38502;-84
2023/08/02 15:25:39;;;;;;;1.48;1.02;;;;;;;30.68;29.16;98797.06;7765760;32;36785;-84
2023/08/02 15:29:55;;;;;;;2.10;0.95;;;;;;;30.22;29.53;98796.72;7765742;32;39404;-83
2023/08/02 15:34:12;;;;;;;3.70;1.10;;;;;;;30.42;30.22;98788.34;7765252;32;41508;-85
2023/08/02 15:38:28;;;;;;;1.65;0.90;;;;;;;29.94;30.24;98798.81;7764156;32;38655;-84
2023/08/02 15:42:45;;;;;;;3.25;1.20;;;;;;;29.54;30.73;98795.81;7765366;32;37255;-85
2023/08/02 15:47:01;;;;;;;1.48;1.10;;;;;;;29.20;31.84;98790.31;7765120;32;40264;-85
2023/08/02 15:51:18;;;;;;;3.20;1.23;;;;;;;29.15;33.02;98785.94;7765431;32;39893;-84
2023/08/02 15:55:34;;;;;;;4.50;1.08;;;;;;;28.98;31.53;98795.41;7765228;32;38621;-84
2023/08/02 15:59:50;;;;;;;1.75;1.20;;;;;;;28.59;32.22;98791.06;7765423;32;36817;-83
2023/08/02 16:04:06;;;;;;;1.83;1.00;;;;;;;27.68;33.88;98796.69;7765286;32;39052;-82
2023/08/02 16:08:23;;;;;;;2.47;1.08;;;;;;;27.59;34.05;98799.16;7765237;32;39904;-82
2023/08/02 16:12:39;;;;;;;3.85;1.10;;;;;;;28.17;34.41;98776.28;7765041;32;38060;-82
2023/08/02 16:16:56;;;;;;;1.52;1.10;;;;;;;28.25;33.89;98773.00;7765244;32;37001;-82
2023/08/02 16:21:12;;;;;;;6.97;1.30;;;;;;;28.48;33.35;98775.13;7764934;32;39390;-82
2023/08/02 16:25:28;;;;;;;3.80;1.25;;;;;;;28.15;32.46;98784.28;7764963;32;40637;-82
2023/08/02 16:29:44;;;;;;;2.00;1.17;;;;;;;27.79;33.86;98768.59;7764862;32;38415;-82
2023/08/02 16:34:01;;;;;;;1.55;1.17;;;;;;;27.23;34.44;98768.56;7763806;32;37770;-82
2023/08/02 16:38:17;;;;;;;2.12;1.20;;;;;;;27.83;32.69;98757.38;7764851;32;40152;-82
2023/08/02 16:42:33;;;;;;;2.65;1.50;;;;;;;28.19;31.88;98762.66;7764525;32;40125;-81
2023/08/02 16:46:49;;;;;;;2.10;1.12;;;;;;;28.56;31.21;98758.25;7764662;32;38829;-82
2023/08/02 16:51:06;;;;;;;2.28;1.17;;;;;;;28.65;32.60;98764.16;7764635;32;37774;-82
2023/08/02 16:55:22;;;;;;;2.03;1.20;;;;;;;28.96;31.11;98759.34;7764480;32;39457;-81
2023/08/02 16:59:38;;;;;;;3.28;2.03;;;;;;;29.01;29.81;98758.06;7764331;32;40873;-82
2023/08/02 17:03:59;;;;;;;2.05;1.50;;;;;;;29.11;30.55;98754.31;7764120;32;38475;-82
2023/08/02 17:08:16;;;;;;;1.48;1.20;;;;;;;29.14;30.92;98758.31;7764285;32;37241;-82
2023/08/02 17:12:32;;;;;;;2.05;1.20;;;;;;;29.02;30.33;98756.88;7764172;32;40053;-82
2023/08/02 17:16:48;;;;;;;2.12;1.37;;;;;;;28.54;31.22;98755.84;7764031;32;40745;-82
2023/08/02 17:21:04;;;;;;;4.07;1.60;;;;;;;28.40;32.37;98734.38;7763825;32;37593;-82
2023/08/02 17:25:23;;;;;;;4.47;1.62;;;;;;;28.46;32.62;98729.13;7763722;32;37117;-83
2023/08/02 17:29:39;;;;;;;2.70;1.30;;;;;;;28.50;32.15;98732.69;7763700;32;40041;-82
2023/08/02 17:33:56;;;;;;;3.97;1.52;;;;;;;27.83;32.88;98751.75;7763469;32;40693;-83
2023/08/02 17:38:12;;;;;;;3.20;1.50;;;;;;;27.91;33.53;98742.91;7763521;32;38884;-83
2023/08/02 17:42:28;;;;;;;3.60;1.90;;;;;;;27.98;33.02;98747.66;7763270;32;36945;-83
2023/08/02 17:46:46;;;;;;;2.78;1.40;;;;;;;27.91;32.86;98744.91;7765548;32;39083;-83
2023/08/02 17:51:02;;;;;;;2.62;1.60;;;;;;;27.97;32.61;98746.06;7766805;32;38897;-78
2023/08/02 17:55:18;;;;;;;5.50;1.95;;;;;;;27.89;33.41;98748.09;7766631;32;37681;-75
2023/08/02 17:59:35;;;;;;;3.78;1.80;;;;;;;27.82;33.74;98744.56;7766760;32;37800;-84
2023/08/02 18:03:51;;;;;;;5.32;2.00;;;;;;;27.23;33.45;98751.78;7765452;32;39573;-86
2023/08/02 18:08:07;;;;;;;4.75;2.03;;;;;;;27.30;34.79;98740.59;7765488;32;40097;-83
2023/08/02 18:12:24;;;;;;;3.10;1.70;;;;;;;27.21;35.69;98743.00;7766553;32;37960;-83
2023/08/02 18:16:40;;;;;;;5.07;1.70;;;;;;;27.28;35.27;98737.41;7766653;32;37051;-86
2023/08/02 18:20:57;;;;;;;2.42;1.50;;;;;;;27.17;35.96;98739.47;7762657;32;40175;-86
2023/08/02 18:25:16;;;;;;;3.00;1.60;;;;;;;27.05;35.48;98731.53;7742865;32;39988;-86
2023/08/02 18:29:32;;;;;;;2.92;1.27;;;;;;;27.02;36.70;98732.34;7741044;32;38003;-86
2023/08/02 18:33:49;;;;;;;2.40;1.50;;;;;;;26.95;35.31;98731.19;7756537;32;37065;-88
2023/08/02 18:38:05;;;;;;;2.12;1.23;;;;;;;26.83;36.53;98723.25;7750564;32;39534;-86
2023/08/02 18:42:22;;;;;;;3.00;1.30;;;;;;;26.48;35.98;98715.84;7754913;32;40002;-86
2023/08/02 18:46:39;;;;;;;2.00;1.40;;;;;;;26.35;36.18;98724.62;7784777;32;37831;-87
2023/08/02 18:50:55;;;;;;;5.20;2.58;;;;;;;26.39;36.36;98719.84;7772513;32;37168;-84
2023/08/02 18:55:12;;;;;;;14.07;7.30;;;;;;;26.19;37.61;98727.87;7766039;32;39756;-83
2023/08/02 18:59:28;;;;;;;11.80;6.07;;;;;;;26.10;37.54;98730.31;7765404;32;39826;-84
2023/08/02 19:03:44;;;;;;;8.65;4.47;;;;;;;25.98;37.86;98727.94;7781923;32;38646;-83
2023/08/02 19:08:00;;;;;;;3.78;1.80;;;;;;;25.82;38.13;98740.28;7751588;32;37770;-82
2023/08/02 19:12:20;;;;;;;3.87;1.50;;;;;;;25.91;38.28;98748.25;7739279;32;39236;-82
2023/08/02 19:16:36;;;;;;;2.62;1.50;;;;;;;25.84;38.73;98756.66;7742806;32;39978;-81
2023/08/02 19:20:53;;;;;;;2.50;1.33;;;;;;;25.86;39.27;98762.62;7757754;32;38472;-84
2023/08/02 19:25:10;;;;;;;2.97;1.70;;;;;;;25.52;39.39;98765.00;7753386;32;36960;-85
2023/08/02 19:29:28;;;;;;;1.98;1.35;;;;;;;25.52;39.17;98762.22;7756057;32;40079;-85
2023/08/02 19:33:44;;;;;;;3.75;1.50;;;;;;;25.36;38.56;98763.41;7742452;32;40727;-84
2023/08/02 19:38:04;;;;;;;4.12;1.52;;;;;;;25.28;38.89;98759.81;7750144;32;37626;-85
2023/08/02 19:42:26;;;;;;;2.17;1.30;;;;;;;25.15;39.63;98763.31;7751824;32;37121;-85
2023/08/02 19:46:46;;;;;;;5.07;1.50;;;;;;;24.99;38.99;98758.94;7739092;32;39104;-85
2023/08/02 19:51:07;;;;;;;2.83;1.40;;;;;;;24.99;38.08;98758.13;7752083;32;40628;-84
2023/08/02 19:55:24;;;;;;;3.50;1.40;;;;;;;25.14;38.49;98758.97;7746730;32;38735;-85
2023/08/02 19:59:43;;;;;;;2.03;1.37;;;;;;;25.20;37.86;98751.78;7744411;32;37968;-84
2023/08/02 20:04:01;;;;;;;5.75;1.20;;;;;;;25.26;38.75;98756.59;7772314;32;39448;-85
2023/08/02 20:08:20;;;;;;;1.77;1.12;;;;;;;24.97;38.02;98755.72;7779139;32;40064;-86